createdAt,value
2018-06-29T00:00:58.755Z,0.00
2018-06-29T00:01:58.753Z,0.00
2018-06-29T00:02:58.794Z,0.00
2018-06-29T00:03:58.772Z,0.00
2018-06-29T00:04:58.816Z,0.00
2018-06-29T00:05:58.811Z,0.00
2018-06-29T00:06:58.819Z,0.00
2018-06-29T00:07:58.804Z,0.00
2018-06-29T00:08:58.809Z,0.00
2018-06-29T00:09:58.811Z,0.00
2018-06-29T00:10:58.834Z,0.00
2018-06-29T00:11:58.824Z,0.00
2018-06-29T00:12:58.861Z,0.00
2018-06-29T00:13:58.799Z,0.00
2018-06-29T00:14:58.838Z,0.00
2018-06-29T00:15:58.837Z,0.00
2018-06-29T00:16:58.889Z,0.00
2018-06-29T00:17:58.855Z,0.00
2018-06-29T00:18:58.801Z,0.00
2018-06-29T00:19:58.805Z,0.00
2018-06-29T00:20:58.861Z,0.00
2018-06-29T00:21:58.793Z,0.00
2018-06-29T00:22:58.809Z,0.00
2018-06-29T00:23:58.812Z,0.00
2018-06-29T00:24:58.830Z,0.00
2018-06-29T00:25:58.815Z,0.00
2018-06-29T00:26:58.931Z,0.00
2018-06-29T00:27:58.848Z,0.00
2018-06-29T00:28:58.827Z,0.00
2018-06-29T00:29:58.834Z,0.00
2018-06-29T00:30:58.826Z,0.00
2018-06-29T00:31:58.847Z,0.00
2018-06-29T00:32:58.858Z,0.00
2018-06-29T00:33:58.859Z,0.00
2018-06-29T00:34:58.874Z,0.00
2018-06-29T00:35:58.886Z,0.00
2018-06-29T00:36:58.852Z,0.00
2018-06-29T00:37:58.836Z,0.00
2018-06-29T00:38:58.849Z,0.00
2018-06-29T00:39:58.858Z,0.00
2018-06-29T00:40:58.900Z,0.00
2018-06-29T00:41:58.868Z,0.00
2018-06-29T00:42:58.885Z,0.00
2018-06-29T00:43:58.891Z,0.00
2018-06-29T00:44:58.869Z,0.00
2018-06-29T00:45:58.895Z,0.00
2018-06-29T00:46:58.964Z,0.00
2018-06-29T00:47:58.891Z,0.00
2018-06-29T00:48:58.914Z,0.00
2018-06-29T00:49:58.905Z,0.00
2018-06-29T00:50:58.894Z,0.00
2018-06-29T00:51:58.891Z,0.00
2018-06-29T00:52:58.924Z,0.00
2018-06-29T00:53:58.926Z,0.00
2018-06-29T00:54:58.929Z,0.00
2018-06-29T00:55:58.939Z,0.00
2018-06-29T00:56:58.933Z,0.00
2018-06-29T00:57:58.917Z,0.00
2018-06-29T00:58:58.910Z,0.00
2018-06-29T00:59:58.906Z,0.00
2018-06-29T01:00:59.076Z,0.00
2018-06-29T01:01:58.946Z,0.00
2018-06-29T01:02:58.941Z,0.00
2018-06-29T01:03:58.977Z,0.00
2018-06-29T01:04:59.054Z,0.00
2018-06-29T01:05:58.965Z,0.00
2018-06-29T01:06:58.996Z,0.00
2018-06-29T01:07:58.969Z,0.00
2018-06-29T01:08:58.952Z,0.00
2018-06-29T01:09:58.981Z,0.00
2018-06-29T01:10:58.959Z,0.00
2018-06-29T01:11:58.954Z,0.00
2018-06-29T01:12:59.005Z,0.00
2018-06-29T01:13:58.978Z,0.00
2018-06-29T01:14:59.003Z,0.00
2018-06-29T01:15:58.988Z,0.00
2018-06-29T01:16:58.981Z,0.00
2018-06-29T01:17:58.988Z,0.00
2018-06-29T01:18:59.786Z,0.00
2018-06-29T01:19:58.977Z,0.00
2018-06-29T01:20:58.997Z,0.00
2018-06-29T01:21:58.987Z,0.00
2018-06-29T01:22:58.976Z,0.00
2018-06-29T01:23:58.976Z,0.00
2018-06-29T01:24:59.043Z,0.00
2018-06-29T01:25:58.997Z,0.00
2018-06-29T01:26:59.030Z,0.00
2018-06-29T01:27:59.017Z,0.00
2018-06-29T01:28:58.990Z,0.00
2018-06-29T01:29:58.998Z,0.00
2018-06-29T01:30:59.001Z,0.00
2018-06-29T01:31:59.009Z,0.00
2018-06-29T01:32:59.018Z,0.00
2018-06-29T01:33:59.007Z,0.00
2018-06-29T01:34:59.065Z,0.00
2018-06-29T01:35:59.102Z,0.00
2018-06-29T01:36:59.029Z,0.00
2018-06-29T01:37:59.022Z,0.00
2018-06-29T01:38:59.023Z,0.00
2018-06-29T01:39:59.051Z,0.00
2018-06-29T01:40:59.111Z,0.00
2018-06-29T01:41:59.067Z,0.00
2018-06-29T01:42:59.035Z,0.00
2018-06-29T01:43:59.073Z,0.00
2018-06-29T01:44:59.052Z,0.00
2018-06-29T01:45:59.053Z,0.00
2018-06-29T01:46:59.073Z,0.00
2018-06-29T01:47:59.054Z,0.00
2018-06-29T01:48:59.083Z,0.00
2018-06-29T01:49:59.095Z,0.00
2018-06-29T01:52:51.194Z,0.00
2018-06-29T01:53:34.169Z,0.00
2018-06-29T01:54:31.353Z,0.00
2018-06-29T01:55:31.342Z,0.00
2018-06-29T01:56:31.317Z,0.00
2018-06-29T01:57:31.327Z,0.00
2018-06-29T01:58:31.342Z,0.00
2018-06-29T01:59:31.336Z,0.00
2018-06-29T02:00:31.336Z,0.00
2018-06-29T02:01:31.360Z,0.00
2018-06-29T02:02:31.362Z,0.00
2018-06-29T02:03:31.363Z,0.00
2018-06-29T02:04:31.353Z,0.00
2018-06-29T02:05:31.359Z,0.00
2018-06-29T02:06:31.338Z,0.00
2018-06-29T02:07:31.387Z,0.00
2018-06-29T02:08:31.353Z,0.00
2018-06-29T02:09:31.397Z,0.00
2018-06-29T02:10:31.405Z,0.00
2018-06-29T02:11:31.356Z,0.00
2018-06-29T02:12:31.366Z,0.00
2018-06-29T02:13:31.442Z,0.00
2018-06-29T02:14:31.362Z,0.00
2018-06-29T02:15:31.431Z,0.00
2018-06-29T02:16:31.408Z,0.00
2018-06-29T02:17:31.550Z,0.00
2018-06-29T02:18:31.390Z,0.00
2018-06-29T02:19:31.414Z,0.00
2018-06-29T02:20:31.398Z,0.00
2018-06-29T02:21:31.435Z,0.00
2018-06-29T02:22:31.396Z,0.00
2018-06-29T02:23:31.400Z,0.00
2018-06-29T02:24:31.427Z,0.00
2018-06-29T02:25:31.427Z,0.00
2018-06-29T02:26:31.429Z,0.00
2018-06-29T02:27:31.483Z,0.00
2018-06-29T02:28:31.440Z,0.00
2018-06-29T02:29:31.427Z,0.00
2018-06-29T02:30:31.441Z,0.00
2018-06-29T02:31:31.452Z,0.00
2018-06-29T02:32:31.483Z,0.00
2018-06-29T02:33:31.455Z,0.00
2018-06-29T02:34:31.430Z,0.00
2018-06-29T02:35:31.472Z,0.00
2018-06-29T02:36:31.471Z,0.00
2018-06-29T02:37:31.445Z,0.00
2018-06-29T02:38:31.473Z,0.00
2018-06-29T02:39:31.437Z,0.00
2018-06-29T02:40:31.453Z,0.00
2018-06-29T02:41:31.443Z,0.00
2018-06-29T02:42:31.445Z,0.00
2018-06-29T02:43:31.480Z,0.00
2018-06-29T02:44:31.474Z,0.00
2018-06-29T02:45:31.512Z,0.00
2018-06-29T02:46:31.502Z,0.00
2018-06-29T02:47:31.518Z,0.00
2018-06-29T02:48:31.477Z,0.00
2018-06-29T02:49:31.512Z,0.00
2018-06-29T02:50:31.568Z,0.00
2018-06-29T02:51:31.558Z,0.00
2018-06-29T02:52:31.540Z,0.00
2018-06-29T02:53:31.473Z,0.00
2018-06-29T02:54:31.475Z,0.00
2018-06-29T02:55:31.485Z,0.00
2018-06-29T02:56:31.517Z,0.00
2018-06-29T02:57:31.531Z,0.00
2018-06-29T02:58:31.528Z,0.00
2018-06-29T02:59:31.527Z,0.00
2018-06-29T03:00:31.511Z,0.00
2018-06-29T03:01:31.506Z,0.00
2018-06-29T03:02:31.550Z,0.00
2018-06-29T03:03:31.512Z,0.00
2018-06-29T03:04:31.510Z,0.00
2018-06-29T03:05:31.538Z,0.00
2018-06-29T03:06:31.550Z,0.00
2018-06-29T03:07:31.525Z,0.00
2018-06-29T03:08:31.528Z,0.00
2018-06-29T03:09:31.556Z,0.00
2018-06-29T03:10:31.518Z,0.00
2018-06-29T03:11:31.543Z,0.00
2018-06-29T03:12:31.553Z,0.00
2018-06-29T03:13:31.533Z,5.63
2018-06-29T03:14:31.533Z,5.63
2018-06-29T03:15:31.549Z,5.63
2018-06-29T03:16:31.535Z,5.63
2018-06-29T03:17:31.542Z,5.63
2018-06-29T03:18:31.560Z,5.63
2018-06-29T03:19:31.582Z,5.63
2018-06-29T03:20:31.541Z,5.63
2018-06-29T03:21:31.647Z,5.63
2018-06-29T03:22:31.566Z,5.63
2018-06-29T03:23:31.560Z,5.63
2018-06-29T03:24:31.584Z,5.63
2018-06-29T03:25:31.560Z,11.25
2018-06-29T03:26:31.566Z,11.25
2018-06-29T03:27:31.569Z,11.25
2018-06-29T03:28:31.584Z,11.25
2018-06-29T03:29:31.572Z,11.25
2018-06-29T03:30:31.587Z,11.25
2018-06-29T03:31:31.604Z,11.25
2018-06-29T03:32:31.589Z,11.25
2018-06-29T03:33:31.597Z,11.25
2018-06-29T03:34:31.618Z,16.88
2018-06-29T03:35:31.604Z,16.88
2018-06-29T03:36:31.597Z,16.88
2018-06-29T03:37:31.594Z,16.88
2018-06-29T03:38:31.590Z,16.88
2018-06-29T03:39:31.585Z,16.88
2018-06-29T03:40:31.666Z,16.88
2018-06-29T03:41:31.615Z,16.88
2018-06-29T03:42:31.625Z,16.88
2018-06-29T03:43:31.610Z,22.50
2018-06-29T03:44:31.627Z,22.50
2018-06-29T03:45:31.644Z,22.50
2018-06-29T03:46:31.621Z,22.50
2018-06-29T03:47:31.623Z,22.50
2018-06-29T03:48:31.623Z,22.50
2018-06-29T03:49:31.763Z,22.50
2018-06-29T03:50:31.677Z,22.50
2018-06-29T03:51:31.650Z,22.50
2018-06-29T03:52:31.644Z,28.13
2018-06-29T03:53:31.632Z,28.13
2018-06-29T03:54:31.643Z,28.13
2018-06-29T03:55:31.636Z,28.13
2018-06-29T03:56:31.633Z,28.13
2018-06-29T03:57:31.678Z,28.13
2018-06-29T03:58:31.656Z,28.13
2018-06-29T03:59:31.643Z,28.13
2018-06-29T04:00:31.668Z,33.75
2018-06-29T04:01:31.648Z,33.75
2018-06-29T04:02:31.702Z,33.75
2018-06-29T04:03:31.656Z,33.75
2018-06-29T04:04:31.683Z,33.75
2018-06-29T04:05:31.706Z,33.75
2018-06-29T04:06:31.662Z,33.75
2018-06-29T04:07:31.678Z,33.75
2018-06-29T04:08:31.690Z,39.38
2018-06-29T04:09:31.667Z,39.38
2018-06-29T04:10:31.677Z,39.38
2018-06-29T04:11:31.693Z,39.38
2018-06-29T04:12:31.706Z,39.38
2018-06-29T04:13:31.701Z,39.38
2018-06-29T04:14:31.707Z,39.38
2018-06-29T04:15:31.708Z,39.38
2018-06-29T04:16:31.717Z,39.38
2018-06-29T04:17:31.702Z,45.00
2018-06-29T04:18:31.712Z,45.00
2018-06-29T04:19:31.693Z,45.00
2018-06-29T04:20:31.722Z,45.00
2018-06-29T04:21:31.720Z,45.00
2018-06-29T04:22:31.694Z,45.00
2018-06-29T04:23:31.736Z,45.00
2018-06-29T04:24:31.708Z,45.00
2018-06-29T04:25:31.726Z,50.63
2018-06-29T04:26:31.760Z,50.63
2018-06-29T04:27:31.724Z,50.63
2018-06-29T04:28:31.732Z,50.63
2018-06-29T04:29:31.795Z,50.63
2018-06-29T04:30:31.725Z,50.63
2018-06-29T04:31:31.752Z,50.63
2018-06-29T04:32:31.746Z,50.63
2018-06-29T04:33:31.739Z,56.25
2018-06-29T04:34:31.763Z,56.25
2018-06-29T04:35:31.764Z,56.25
2018-06-29T04:36:31.782Z,56.25
2018-06-29T04:37:31.758Z,56.25
2018-06-29T04:38:31.758Z,56.25
2018-06-29T04:39:32.699Z,56.25
2018-06-29T04:40:31.742Z,56.25
2018-06-29T04:41:31.740Z,61.88
2018-06-29T04:42:31.763Z,61.88
2018-06-29T04:43:31.755Z,61.88
2018-06-29T04:44:31.760Z,61.88
2018-06-29T04:45:31.768Z,61.88
2018-06-29T04:46:31.788Z,61.88
2018-06-29T04:47:31.775Z,61.88
2018-06-29T04:48:31.768Z,67.50
2018-06-29T04:49:31.766Z,67.50
2018-06-29T04:50:31.838Z,67.50
2018-06-29T04:51:31.784Z,73.13
2018-06-29T04:52:31.798Z,73.13
2018-06-29T04:53:31.790Z,78.75
2018-06-29T04:54:31.802Z,84.38
2018-06-29T04:55:31.811Z,84.38
2018-06-29T04:56:31.817Z,90.00
2018-06-29T04:57:31.813Z,95.63
2018-06-29T04:58:31.819Z,95.63
2018-06-29T04:59:31.829Z,101.25
2018-06-29T05:00:31.819Z,106.88
2018-06-29T05:01:31.841Z,112.50
2018-06-29T05:02:31.870Z,112.50
2018-06-29T05:03:31.799Z,118.13
2018-06-29T05:04:31.957Z,123.75
2018-06-29T05:05:31.854Z,118.13
2018-06-29T05:06:31.818Z,106.88
2018-06-29T05:07:31.894Z,101.25
2018-06-29T05:08:31.811Z,129.38
2018-06-29T05:09:31.818Z,196.88
2018-06-29T05:10:31.896Z,258.75
2018-06-29T05:11:31.828Z,292.50
2018-06-29T05:12:31.831Z,298.13
2018-06-29T05:13:31.843Z,309.38
2018-06-29T05:14:31.868Z,315.00
2018-06-29T05:15:31.892Z,320.63
2018-06-29T05:16:31.864Z,326.25
2018-06-29T05:17:31.870Z,331.88
2018-06-29T05:18:31.875Z,331.88
2018-06-29T05:19:31.901Z,337.50
2018-06-29T05:20:31.878Z,343.13
2018-06-29T05:21:31.892Z,348.75
2018-06-29T05:22:31.864Z,348.75
2018-06-29T05:23:31.883Z,354.38
2018-06-29T05:24:31.887Z,360.00
2018-06-29T05:25:31.882Z,365.63
2018-06-29T05:26:31.871Z,365.63
2018-06-29T05:27:31.875Z,365.63
2018-06-29T05:28:32.760Z,371.25
2018-06-29T05:29:31.932Z,360.00
2018-06-29T05:30:31.891Z,315.00
2018-06-29T05:31:31.902Z,247.50
2018-06-29T05:32:31.904Z,219.38
2018-06-29T05:33:31.969Z,258.75
2018-06-29T05:34:31.983Z,320.63
2018-06-29T05:35:31.911Z,360.00
2018-06-29T05:36:31.922Z,382.50
2018-06-29T05:37:31.935Z,388.13
2018-06-29T05:38:31.935Z,388.13
2018-06-29T05:39:31.948Z,393.75
2018-06-29T05:40:31.999Z,399.38
2018-06-29T05:41:32.049Z,399.38
2018-06-29T05:42:31.968Z,405.00
2018-06-29T05:43:31.997Z,410.63
2018-06-29T05:44:32.116Z,416.25
2018-06-29T05:45:31.977Z,421.88
2018-06-29T05:46:31.990Z,427.50
2018-06-29T05:47:31.988Z,433.13
2018-06-29T05:48:32.030Z,433.13
2018-06-29T05:49:32.060Z,438.75
2018-06-29T05:50:32.084Z,444.38
2018-06-29T05:51:32.035Z,450.00
2018-06-29T05:52:32.050Z,450.00
2018-06-29T05:53:32.014Z,455.63
2018-06-29T05:54:32.043Z,455.63
2018-06-29T05:55:32.045Z,461.25
2018-06-29T05:56:32.053Z,466.88
2018-06-29T05:57:32.197Z,472.50
2018-06-29T05:58:32.065Z,472.50
2018-06-29T05:59:32.144Z,478.13
2018-06-29T06:00:32.096Z,483.75
2018-06-29T06:01:32.162Z,483.75
2018-06-29T06:02:32.175Z,489.38
2018-06-29T06:03:32.129Z,489.38
2018-06-29T06:04:32.212Z,489.38
2018-06-29T06:05:32.168Z,489.38
2018-06-29T06:06:32.216Z,495.00
2018-06-29T06:07:32.135Z,495.00
2018-06-29T06:08:32.154Z,500.63
2018-06-29T06:09:32.150Z,500.63
2018-06-29T06:10:32.168Z,500.63
2018-06-29T06:11:32.242Z,506.25
2018-06-29T06:12:32.297Z,511.88
2018-06-29T06:13:32.950Z,517.50
2018-06-29T06:14:32.314Z,528.75
2018-06-29T06:15:33.002Z,523.13
2018-06-29T06:16:32.275Z,540.00
2018-06-29T06:17:32.262Z,540.00
2018-06-29T06:18:32.272Z,545.63
2018-06-29T06:19:32.289Z,540.00
2018-06-29T06:20:32.319Z,545.63
2018-06-29T06:21:32.319Z,551.25
2018-06-29T06:22:32.424Z,551.25
2018-06-29T06:23:32.326Z,556.88
2018-06-29T06:24:32.457Z,562.50
2018-06-29T06:25:32.441Z,568.13
2018-06-29T06:26:32.371Z,568.13
2018-06-29T06:27:32.394Z,573.75
2018-06-29T06:28:32.438Z,579.38
2018-06-29T06:29:32.477Z,590.63
2018-06-29T06:30:32.435Z,590.63
2018-06-29T06:31:32.494Z,596.25
2018-06-29T06:32:32.397Z,596.25
2018-06-29T06:33:32.441Z,601.88
2018-06-29T06:34:32.458Z,607.50
2018-06-29T06:35:32.440Z,613.13
2018-06-29T06:36:32.448Z,613.13
2018-06-29T06:37:32.529Z,607.50
2018-06-29T06:38:32.830Z,607.50
2018-06-29T06:39:33.297Z,613.13
2018-06-29T06:40:32.532Z,618.75
2018-06-29T06:41:32.481Z,613.13
2018-06-29T06:42:32.497Z,618.75
2018-06-29T06:43:32.622Z,618.75
2018-06-29T06:44:32.593Z,618.75
2018-06-29T06:45:32.601Z,624.38
2018-06-29T06:46:32.582Z,630.00
2018-06-29T06:47:32.595Z,635.63
2018-06-29T06:48:33.553Z,641.25
2018-06-29T06:49:32.658Z,641.25
2018-06-29T06:50:35.400Z,646.88
2018-06-29T06:51:32.957Z,652.50
2018-06-29T06:52:32.899Z,652.50
2018-06-29T06:53:32.737Z,663.75
2018-06-29T06:54:32.833Z,663.75
2018-06-29T06:55:32.821Z,663.75
2018-06-29T06:56:34.402Z,669.38
2018-06-29T06:57:33.773Z,675.00
2018-06-29T06:58:32.791Z,680.63
2018-06-29T06:59:32.836Z,686.25
2018-06-29T07:00:32.832Z,686.25
2018-06-29T07:01:33.663Z,691.88
2018-06-29T07:02:33.769Z,691.88
2018-06-29T07:03:34.331Z,697.50
2018-06-29T07:04:33.176Z,697.50
2018-06-29T07:05:35.414Z,703.13
2018-06-29T07:06:32.971Z,703.13
2018-06-29T07:07:32.934Z,708.75
2018-06-29T07:08:33.695Z,720.00
2018-06-29T07:09:33.916Z,725.63
2018-06-29T07:10:33.020Z,731.25
2018-06-29T07:11:32.928Z,736.88
2018-06-29T07:12:33.000Z,748.13
2018-06-29T07:13:33.039Z,753.75
2018-06-29T07:14:33.237Z,759.38
2018-06-29T07:15:33.050Z,765.00
2018-06-29T07:16:33.035Z,770.63
2018-06-29T07:17:33.064Z,776.25
2018-06-29T07:18:33.088Z,781.88
2018-06-29T07:19:33.241Z,787.50
2018-06-29T07:20:33.139Z,793.13
2018-06-29T07:21:33.077Z,804.38
2018-06-29T07:22:33.786Z,815.63
2018-06-29T07:23:33.179Z,821.25
2018-06-29T07:24:33.641Z,826.88
2018-06-29T07:25:33.250Z,832.50
2018-06-29T07:26:33.211Z,832.50
2018-06-29T07:27:33.917Z,843.75
2018-06-29T07:28:33.204Z,843.75
2018-06-29T07:29:34.857Z,838.13
2018-06-29T07:30:33.302Z,843.75
2018-06-29T07:31:34.495Z,849.38
2018-06-29T07:32:35.084Z,855.00
2018-06-29T07:33:33.326Z,860.63
2018-06-29T07:34:33.316Z,871.88
2018-06-29T07:35:33.432Z,883.13
2018-06-29T07:36:33.396Z,888.75
2018-06-29T07:37:33.371Z,894.38
2018-06-29T07:38:33.496Z,905.63
2018-06-29T07:39:33.451Z,911.25
2018-06-29T07:40:33.482Z,922.50
2018-06-29T07:41:33.371Z,933.75
2018-06-29T07:42:33.494Z,939.38
2018-06-29T07:43:33.452Z,956.25
2018-06-29T07:44:33.994Z,967.50
2018-06-29T07:45:33.567Z,973.13
2018-06-29T07:46:34.151Z,984.38
2018-06-29T07:47:33.616Z,990.00
2018-06-29T07:48:33.650Z,1001.25
2018-06-29T07:49:33.593Z,1006.88
2018-06-29T07:50:33.713Z,1018.13
2018-06-29T07:51:34.486Z,1023.75
2018-06-29T07:52:33.670Z,1040.63
2018-06-29T07:53:33.681Z,1040.63
2018-06-29T07:54:33.643Z,1051.88
2018-06-29T07:55:33.699Z,1063.13
2018-06-29T07:56:34.431Z,1080.00
2018-06-29T07:57:33.708Z,1096.88
2018-06-29T07:58:33.843Z,1119.38
2018-06-29T07:59:33.834Z,1141.88
2018-06-29T08:00:33.774Z,1147.50
2018-06-29T08:01:33.825Z,1170.00
2018-06-29T08:02:33.889Z,1186.88
2018-06-29T08:03:33.844Z,1215.00
2018-06-29T08:04:33.878Z,1237.50
2018-06-29T08:05:33.896Z,1288.13
2018-06-29T08:06:33.914Z,1355.63
2018-06-29T08:07:34.036Z,1445.63
2018-06-29T08:08:33.984Z,1569.38
2018-06-29T08:09:34.119Z,1676.25
2018-06-29T08:10:36.625Z,1755.00
2018-06-29T08:11:33.996Z,1822.50
2018-06-29T08:12:34.065Z,1918.13
2018-06-29T08:13:34.042Z,2025.00
2018-06-29T08:14:34.181Z,2171.25
2018-06-29T08:15:34.079Z,2345.63
2018-06-29T08:16:34.045Z,2469.38
2018-06-29T08:17:34.117Z,2660.63
2018-06-29T08:18:34.336Z,2947.50
2018-06-29T08:19:34.225Z,3301.88
2018-06-29T08:20:35.274Z,3690.00
2018-06-29T08:21:34.203Z,4336.88
2018-06-29T08:22:34.501Z,5146.88
2018-06-29T08:23:34.365Z,5855.63
2018-06-29T08:24:34.336Z,6063.75
2018-06-29T08:25:34.346Z,6232.50
2018-06-29T08:26:34.288Z,6288.75
2018-06-29T08:27:34.370Z,6181.88
2018-06-29T08:28:34.363Z,6001.88
2018-06-29T08:29:34.305Z,6018.75
2018-06-29T08:30:34.293Z,5771.25
2018-06-29T08:31:34.378Z,5456.25
2018-06-29T08:32:34.394Z,5338.13
2018-06-29T08:33:34.493Z,5191.88
2018-06-29T08:34:34.552Z,5023.13
2018-06-29T08:35:34.496Z,4820.63
2018-06-29T08:36:35.338Z,4651.88
2018-06-29T08:37:34.519Z,4578.75
2018-06-29T08:38:34.537Z,4438.13
2018-06-29T08:39:34.563Z,4145.63
2018-06-29T08:40:34.544Z,3903.75
2018-06-29T08:41:34.612Z,3740.63
2018-06-29T08:42:34.544Z,3571.88
2018-06-29T08:43:34.697Z,3673.13
2018-06-29T08:44:34.632Z,3729.38
2018-06-29T08:45:35.353Z,3605.63
2018-06-29T08:46:34.700Z,3555.00
2018-06-29T08:47:34.749Z,3543.75
2018-06-29T08:48:34.708Z,3504.38
2018-06-29T08:49:34.776Z,3425.63
2018-06-29T08:50:34.831Z,3459.38
2018-06-29T08:51:34.845Z,3476.25
2018-06-29T08:52:34.944Z,3510.00
2018-06-29T08:53:34.972Z,3515.63
2018-06-29T08:54:34.901Z,3453.75
2018-06-29T08:55:35.018Z,3397.50
2018-06-29T08:56:34.943Z,3318.75
2018-06-29T08:57:34.989Z,3313.13
2018-06-29T08:58:34.968Z,3330.00
2018-06-29T08:59:34.967Z,3324.38
2018-06-29T09:00:36.037Z,3313.13
2018-06-29T09:08:09.815Z,2998.13
2018-06-29T09:08:45.095Z,2970.00
2018-06-29T09:09:45.035Z,3020.63
2018-06-29T09:10:45.034Z,3127.50
2018-06-29T09:11:45.051Z,3183.75
2018-06-29T09:12:45.822Z,3273.75
2018-06-29T09:13:45.145Z,3330.00
2018-06-29T09:14:45.127Z,3301.88
2018-06-29T09:15:45.168Z,3268.13
2018-06-29T09:16:45.168Z,3290.63
2018-06-29T09:17:45.212Z,3375.00
2018-06-29T09:18:45.234Z,3470.63
2018-06-29T09:19:45.236Z,3538.13
2018-06-29T09:20:45.275Z,3611.25
2018-06-29T09:21:45.281Z,3622.50
2018-06-29T09:22:45.304Z,3639.38
2018-06-29T09:23:45.826Z,3706.88
2018-06-29T09:24:45.369Z,3751.88
2018-06-29T09:25:45.369Z,3780.00
2018-06-29T09:26:45.404Z,3825.00
2018-06-29T09:27:45.506Z,3847.50
2018-06-29T09:28:45.461Z,3898.13
2018-06-29T09:29:45.492Z,3960.00
2018-06-29T09:30:45.503Z,4111.88
2018-06-29T09:31:45.521Z,4286.25
2018-06-29T09:32:46.333Z,4466.25
2018-06-29T09:33:45.575Z,4511.25
2018-06-29T09:34:45.595Z,4421.25
2018-06-29T09:35:46.336Z,4455.00
2018-06-29T09:36:45.639Z,4381.88
2018-06-29T09:37:45.680Z,4365.00
2018-06-29T09:38:45.699Z,4359.38
2018-06-29T09:47:31.547Z,4381.88
2018-06-29T09:48:31.561Z,4500.00
2018-06-29T09:50:24.447Z,4606.88
2018-06-29T09:51:24.819Z,4556.25
2018-06-29T09:52:24.050Z,4629.38
2018-06-29T09:53:24.069Z,4730.63
2018-06-29T09:54:24.137Z,4702.50
2018-06-29T09:55:24.170Z,4635.00
2018-06-29T09:56:24.157Z,4657.50
2018-06-29T09:57:24.177Z,4680.00
2018-06-29T09:58:24.213Z,4730.63
2018-06-29T09:59:24.229Z,4747.50
2018-06-29T10:00:24.256Z,4713.75
2018-06-29T10:01:24.365Z,4680.00
2018-06-29T10:02:24.320Z,4713.75
2018-06-29T10:03:24.330Z,4736.25
2018-06-29T10:04:24.350Z,4635.00
2018-06-29T10:05:24.398Z,4410.00
2018-06-29T10:06:24.447Z,4185.00
2018-06-29T10:07:24.447Z,4005.00
2018-06-29T10:08:24.450Z,3746.25
2018-06-29T10:15:50.447Z,2587.50
2018-06-29T10:16:34.982Z,2508.75
2018-06-29T10:18:29.198Z,2413.13
2018-06-29T10:19:30.099Z,2345.63
2018-06-29T10:21:23.778Z,2289.38
2018-06-29T10:22:23.809Z,2233.13
2018-06-29T10:24:18.963Z,2165.63
2018-06-29T10:25:18.640Z,2182.50
2018-06-29T10:26:18.627Z,2165.63
2018-06-29T10:27:18.672Z,2176.88
2018-06-29T10:28:18.819Z,2227.50
2018-06-29T10:29:20.407Z,2323.13
2018-06-29T10:30:18.739Z,2941.88
2018-06-29T10:31:18.737Z,4511.25
2018-06-29T10:32:21.311Z,5602.50
2018-06-29T10:33:18.827Z,5186.25
2018-06-29T10:34:18.785Z,4736.25
2018-06-29T10:35:18.842Z,4584.38
2018-06-29T10:36:18.837Z,4725.00
2018-06-29T10:37:19.666Z,4629.38
2018-06-29T10:38:18.883Z,4168.13
2018-06-29T10:39:18.906Z,4145.63
2018-06-29T10:40:18.949Z,2953.13
2018-06-29T10:41:18.969Z,1068.75
2018-06-29T10:42:18.980Z,253.13
2018-06-29T10:43:19.045Z,180.00
2018-06-29T10:44:18.998Z,174.38
2018-06-29T10:45:19.891Z,174.38
2018-06-29T10:46:19.026Z,168.75
2018-06-29T10:47:22.668Z,168.75
2018-06-29T10:48:19.092Z,168.75
2018-06-29T10:49:19.151Z,163.13
2018-06-29T10:50:19.669Z,163.13
2018-06-29T10:51:19.120Z,163.13
2018-06-29T10:52:19.194Z,157.50
2018-06-29T10:53:19.153Z,157.50
2018-06-29T10:54:19.307Z,157.50
2018-06-29T10:55:19.209Z,157.50
2018-06-29T10:56:19.251Z,151.88
2018-06-29T10:57:19.345Z,151.88
2018-06-29T10:58:19.267Z,151.88
2018-06-29T10:59:20.497Z,151.88
2018-06-29T11:00:19.390Z,151.88
2018-06-29T11:01:19.460Z,151.88
2018-06-29T11:02:19.452Z,151.88
2018-06-29T11:03:20.274Z,151.88
2018-06-29T11:04:19.342Z,151.88
2018-06-29T11:05:19.445Z,151.88
2018-06-29T11:06:19.391Z,151.88
2018-06-29T11:07:19.407Z,146.25
2018-06-29T11:08:19.432Z,146.25
2018-06-29T11:09:19.454Z,146.25
2018-06-29T11:10:19.454Z,146.25
2018-06-29T11:11:19.447Z,146.25
2018-06-29T11:12:19.437Z,146.25
2018-06-29T11:13:19.598Z,146.25
2018-06-29T11:14:19.551Z,146.25
2018-06-29T11:15:19.827Z,140.63
2018-06-29T11:16:19.487Z,140.63
2018-06-29T11:17:19.498Z,140.63
2018-06-29T11:18:19.613Z,140.63
2018-06-29T11:19:19.554Z,140.63
2018-06-29T11:20:19.592Z,140.63
2018-06-29T11:21:19.559Z,140.63
2018-06-29T11:22:19.571Z,135.00
2018-06-29T11:23:19.616Z,135.00
2018-06-29T11:24:19.675Z,135.00
2018-06-29T11:25:19.609Z,135.00
2018-06-29T11:26:19.636Z,135.00
2018-06-29T11:27:19.620Z,135.00
2018-06-29T11:28:19.678Z,135.00
2018-06-29T11:29:19.643Z,135.00
2018-06-29T11:30:19.752Z,135.00
2018-06-29T11:31:19.680Z,135.00
2018-06-29T11:32:20.078Z,135.00
2018-06-29T11:33:19.703Z,135.00
2018-06-29T11:34:19.702Z,135.00
2018-06-29T11:35:19.843Z,135.00
2018-06-29T11:36:19.723Z,135.00
2018-06-29T11:37:19.782Z,135.00
2018-06-29T11:38:19.747Z,135.00
2018-06-29T11:39:19.798Z,135.00
2018-06-29T11:40:19.798Z,135.00
2018-06-29T11:41:19.836Z,135.00
2018-06-29T11:42:19.843Z,135.00
2018-06-29T11:43:19.866Z,135.00
2018-06-29T11:44:21.791Z,135.00
2018-06-29T11:45:19.878Z,135.00
2018-06-29T11:46:19.850Z,135.00
2018-06-29T11:47:19.899Z,135.00
2018-06-29T11:48:19.901Z,140.63
2018-06-29T11:49:19.960Z,140.63
2018-06-29T11:50:21.816Z,140.63
2018-06-29T11:51:20.010Z,140.63
2018-06-29T11:52:20.004Z,146.25
2018-06-29T11:53:19.906Z,140.63
2018-06-29T11:54:19.952Z,140.63
2018-06-29T11:55:20.040Z,140.63
2018-06-29T11:56:20.044Z,140.63
2018-06-29T11:57:20.007Z,140.63
2018-06-29T11:58:20.017Z,140.63
2018-06-29T11:59:19.999Z,140.63
2018-06-29T12:00:20.089Z,140.63
2018-06-29T12:01:20.028Z,140.63
2018-06-29T12:02:20.023Z,140.63
2018-06-29T12:03:20.008Z,140.63
2018-06-29T12:04:20.044Z,135.00
2018-06-29T12:05:20.078Z,135.00
2018-06-29T12:06:20.136Z,135.00
2018-06-29T12:07:20.805Z,135.00
2018-06-29T12:08:20.082Z,135.00
2018-06-29T12:09:20.136Z,135.00
2018-06-29T12:10:20.099Z,135.00
2018-06-29T12:11:20.121Z,135.00
2018-06-29T12:12:20.173Z,135.00
2018-06-29T12:13:20.138Z,135.00
2018-06-29T12:14:20.138Z,135.00
2018-06-29T12:15:20.136Z,135.00
2018-06-29T12:16:20.157Z,135.00
2018-06-29T12:17:20.189Z,135.00
2018-06-29T12:18:20.165Z,135.00
2018-06-29T12:19:20.239Z,135.00
2018-06-29T12:20:20.204Z,140.63
2018-06-29T12:21:20.199Z,135.00
2018-06-29T12:22:21.847Z,129.38
2018-06-29T12:23:21.385Z,129.38
2018-06-29T12:24:20.240Z,129.38
2018-06-29T12:25:20.252Z,129.38
2018-06-29T12:26:20.285Z,129.38
2018-06-29T12:27:20.268Z,129.38
2018-06-29T12:28:20.250Z,135.00
2018-06-29T12:29:20.319Z,135.00
2018-06-29T12:30:20.347Z,135.00
2018-06-29T12:31:20.352Z,135.00
2018-06-29T12:32:20.371Z,129.38
2018-06-29T12:33:20.457Z,129.38
2018-06-29T12:34:20.363Z,129.38
2018-06-29T12:35:20.345Z,129.38
2018-06-29T12:36:20.432Z,129.38
2018-06-29T12:37:20.375Z,129.38
2018-06-29T12:38:20.371Z,129.38
2018-06-29T12:39:20.348Z,129.38
2018-06-29T12:40:21.235Z,129.38
2018-06-29T12:41:21.235Z,123.75
2018-06-29T12:42:20.529Z,123.75
2018-06-29T12:43:20.439Z,123.75
2018-06-29T12:44:20.626Z,123.75
2018-06-29T12:45:20.462Z,123.75
2018-06-29T12:46:20.501Z,123.75
2018-06-29T12:47:20.460Z,123.75
2018-06-29T12:48:20.482Z,118.13
2018-06-29T12:49:20.491Z,118.13
2018-06-29T12:50:20.572Z,118.13
2018-06-29T12:51:20.512Z,118.13
2018-06-29T12:52:20.512Z,118.13
2018-06-29T12:53:20.562Z,118.13
2018-06-29T12:54:20.518Z,118.13
2018-06-29T12:55:20.641Z,118.13
2018-06-29T12:56:20.575Z,118.13
2018-06-29T12:57:20.781Z,118.13
2018-06-29T12:58:20.557Z,118.13
2018-06-29T12:59:20.557Z,118.13
2018-06-29T13:00:20.609Z,112.50
2018-06-29T13:01:20.581Z,118.13
2018-06-29T13:02:20.585Z,118.13
2018-06-29T13:03:20.585Z,118.13
2018-06-29T13:04:20.609Z,112.50
2018-06-29T13:05:20.640Z,112.50